Аэропорт: Витязево. Анапа

ICAO: URKA

METAR:
2019-11-21 01:30:00
URKA 210130Z 08013MPS 9999 SCT017 03/00 Q1024 R04/010070 NOSIG RMK QFE764/1019
METAR:
2019-11-20 22:58:00
TAF URKA 202258Z 2100/2124 08011G20MPS 9999 BKN030 TEMPO 2100/2124 07016G25MPS SCT011 BKN020